Time;durP1;ratioP1;P1;durP2;ratioP2;P2;SDS_P1;SDS_P2;PMS_P1;PMS_P2;Temp;Humidity;BMP_temperature;BMP_pressure;BME280_temperature;BME280_humidity;BME280_pressure;Samples;Min_cycle;Max_cycle;Signal;HPM_P1;HPM_P2
2020/12/19 00:02:05;;;;;;;18.90;10.77;;;6.00;39.30;;;;;;5013349;28;20136;-73
2020/12/19 00:04:40;;;;;;;16.30;10.00;;;6.00;39.70;;;;;;5009293;28;20419;-71
2020/12/19 00:07:07;;;;;;;14.35;10.43;;;6.00;39.40;;;;;;5010782;28;20053;-72
2020/12/19 00:09:35;;;;;;;14.13;10.27;;;6.00;39.10;;;;;;5013360;28;20065;-73
2020/12/19 00:12:02;;;;;;;15.68;10.30;;;6.20;39.00;;;;;;5011115;28;20084;-71
2020/12/19 00:14:29;;;;;;;15.50;10.48;;;6.10;39.00;;;;;;5011152;28;20053;-74
2020/12/19 00:16:56;;;;;;;15.50;10.27;;;6.10;38.90;;;;;;5007640;28;20049;-72
2020/12/19 00:19:24;;;;;;;14.55;10.35;;;6.00;39.10;;;;;;5012569;28;20080;-72
2020/12/19 00:21:51;;;;;;;15.70;10.15;;;5.90;41.10;;;;;;5012112;28;20056;-73
2020/12/19 00:24:19;;;;;;;16.27;10.63;;;5.70;42.60;;;;;;5010813;28;20081;-71
2020/12/19 00:26:46;;;;;;;14.65;11.10;;;5.70;44.10;;;;;;5009401;28;20096;-71
2020/12/19 00:29:13;;;;;;;15.55;10.88;;;5.70;43.80;;;;;;5009317;28;20054;-72
2020/12/19 00:31:40;;;;;;;14.57;10.50;;;5.90;42.50;;;;;;5009138;28;20060;-72
2020/12/19 00:34:07;;;;;;;21.75;10.68;;;6.00;41.00;;;;;;5012109;28;20045;-72
2020/12/19 00:36:34;;;;;;;15.73;10.60;;;6.00;40.70;;;;;;5008997;28;20042;-72
2020/12/19 00:39:01;;;;;;;17.70;10.50;;;6.10;39.90;;;;;;5008571;28;20112;-70
2020/12/19 00:41:29;;;;;;;13.65;9.43;;;6.10;38.30;;;;;;5012618;28;20472;-71
2020/12/19 00:43:56;;;;;;;14.50;9.77;;;6.10;38.20;;;;;;5011479;28;20265;-71
2020/12/19 00:46:23;;;;;;;15.85;9.63;;;6.00;38.20;;;;;;5011058;28;20420;-71
2020/12/19 00:48:51;;;;;;;14.68;9.75;;;6.10;37.80;;;;;;5009749;28;20057;-71
2020/12/19 00:51:20;;;;;;;15.43;10.05;;;6.00;37.40;;;;;;5011151;28;20056;-71
2020/12/19 00:53:47;;;;;;;14.65;10.23;;;5.90;38.40;;;;;;5009504;28;20046;-73
2020/12/19 00:56:19;;;;;;;14.10;9.65;;;6.00;38.50;;;;;;5007973;28;20511;-73
2020/12/19 00:58:47;;;;;;;17.42;9.52;;;6.00;37.40;;;;;;5009690;28;20087;-73
2020/12/19 01:01:15;;;;;;;13.68;9.82;;;6.10;37.00;;;;;;5012553;28;20050;-71
2020/12/19 01:03:42;;;;;;;13.40;9.63;;;6.10;37.40;;;;;;5009497;28;20515;-70
2020/12/19 01:06:13;;;;;;;13.40;9.45;;;6.20;36.10;;;;;;5010592;28;20662;-71
2020/12/19 01:08:40;;;;;;;14.40;9.38;;;6.20;35.40;;;;;;5007299;28;20058;-71
2020/12/19 01:11:26;;;;;;;16.27;10.02;;;6.10;36.20;;;;;;5010951;28;20046;-71
2020/12/19 01:13:54;;;;;;;14.57;9.70;;;6.00;36.50;;;;;;5010292;28;20052;-71
2020/12/19 01:16:22;;;;;;;13.90;9.82;;;6.00;36.70;;;;;;5009973;28;20069;-71
2020/12/19 01:18:51;;;;;;;14.70;9.98;;;5.90;37.40;;;;;;5009889;28;20100;-70
2020/12/19 01:21:20;;;;;;;15.60;10.30;;;5.80;38.70;;;;;;5009369;28;20053;-72
2020/12/19 01:23:48;;;;;;;15.07;10.55;;;5.80;38.70;;;;;;5010083;28;20061;-70
2020/12/19 01:26:15;;;;;;;16.48;10.70;;;5.70;39.60;;;;;;5019372;28;20057;-69
2020/12/19 01:28:42;;;;;;;13.63;10.00;;;5.70;40.20;;;;;;5014494;28;20050;-73
2020/12/19 01:31:13;;;;;;;15.25;10.23;;;5.70;39.10;;;;;;5016897;28;20050;-70
2020/12/19 01:33:40;;;;;;;13.68;9.93;;;5.70;39.40;;;;;;5021118;28;20058;-70
2020/12/19 01:36:09;;;;;;;14.13;10.50;;;5.70;39.50;;;;;;5014943;28;20046;-72
2020/12/19 01:38:36;;;;;;;15.35;10.70;;;5.70;39.10;;;;;;5016512;28;20054;-72
2020/12/19 01:41:03;;;;;;;13.95;10.80;;;5.80;39.60;;;;;;5016179;28;20547;-70
2020/12/19 01:43:47;;;;;;;17.40;10.20;;;5.80;40.20;;;;;;5019676;28;20045;-69
2020/12/19 01:46:27;;;;;;;15.85;10.18;;;5.80;38.90;;;;;;5015049;28;20054;-69
2020/12/19 01:48:56;;;;;;;17.25;10.20;;;5.90;38.80;;;;;;5012330;28;20050;-69
2020/12/19 01:51:24;;;;;;;15.93;10.52;;;5.80;38.70;;;;;;5013736;28;20396;-69
2020/12/19 01:53:52;;;;;;;15.48;10.18;;;5.90;38.80;;;;;;5011183;28;20052;-73
2020/12/19 01:56:29;;;;;;;13.68;9.82;;;5.90;38.80;;;;;;5011056;28;20057;-69
2020/12/19 01:58:56;;;;;;;12.27;9.57;;;5.90;38.70;;;;;;5009080;28;20064;-70
2020/12/19 02:01:28;;;;;;;11.88;8.98;;;5.90;37.90;;;;;;5020713;28;20055;-73
2020/12/19 02:03:55;;;;;;;16.13;9.90;;;5.90;37.70;;;;;;5024263;28;20054;-70
2020/12/19 02:06:24;;;;;;;13.27;9.55;;;5.90;37.30;;;;;;5018210;28;20058;-73
2020/12/19 02:08:52;;;;;;;12.50;9.18;;;5.90;37.80;;;;;;5013542;28;20076;-70
2020/12/19 02:11:21;;;;;;;15.10;10.38;;;5.70;38.60;;;;;;5011420;28;20054;-70
2020/12/19 02:13:48;;;;;;;14.10;9.40;;;5.60;39.30;;;;;;5013571;28;20064;-71
2020/12/19 02:16:17;;;;;;;17.08;10.75;;;5.50;41.70;;;;;;5011955;28;20061;-70
2020/12/19 02:18:45;;;;;;;14.50;10.02;;;5.40;42.50;;;;;;5017104;28;20077;-72
2020/12/19 02:21:11;;;;;;;14.55;10.48;;;5.40;43.20;;;;;;5013197;28;20061;-70
2020/12/19 02:23:39;;;;;;;14.45;10.80;;;5.40;43.20;;;;;;5015997;28;20049;-70
2020/12/19 02:26:06;;;;;;;16.50;10.18;;;5.30;43.20;;;;;;5010945;28;20046;-73
2020/12/19 02:28:33;;;;;;;17.67;10.60;;;5.20;44.00;;;;;;5014072;28;20065;-71
2020/12/19 02:31:00;;;;;;;14.48;9.85;;;5.40;44.40;;;;;;5003979;28;20514;-69
2020/12/19 02:33:27;;;;;;;15.07;9.95;;;5.40;43.20;;;;;;5000884;28;20472;-69
2020/12/19 02:36:06;;;;;;;14.40;10.30;;;5.50;41.90;;;;;;5011220;28;20046;-70
2020/12/19 02:38:33;;;;;;;14.15;9.77;;;5.50;41.90;;;;;;5015252;28;20056;-70
2020/12/19 02:41:01;;;;;;;16.02;10.77;;;5.40;41.80;;;;;;5015071;28;20084;-69
2020/12/19 02:43:27;;;;;;;15.95;10.70;;;5.30;42.60;;;;;;5015060;28;20053;-70
2020/12/19 02:45:54;;;;;;;16.05;10.65;;;5.20;43.70;;;;;;5013763;28;20057;-70
2020/12/19 02:48:22;;;;;;;16.60;10.13;;;5.20;44.20;;;;;;5010005;28;20502;-70
2020/12/19 02:50:49;;;;;;;17.40;11.05;;;5.20;43.80;;;;;;5012629;28;20416;-71
2020/12/19 02:53:17;;;;;;;14.95;10.93;;;5.20;44.80;;;;;;5014340;28;20471;-71
2020/12/19 02:55:43;;;;;;;16.48;10.90;;;5.10;44.60;;;;;;5008095;28;20415;-69
2020/12/19 02:58:11;;;;;;;15.27;10.50;;;5.10;45.10;;;;;;5014549;28;20056;-68
2020/12/19 03:00:38;;;;;;;16.73;10.65;;;5.00;45.10;;;;;;5014655;28;20455;-70
2020/12/19 03:03:05;;;;;;;18.02;11.25;;;5.00;44.70;;;;;;5011723;28;20046;-71
2020/12/19 03:05:32;;;;;;;17.65;11.23;;;4.90;45.50;;;;;;5013950;28;20132;-70
2020/12/19 03:07:59;;;;;;;15.98;10.13;;;4.90;46.20;;;;;;5014936;28;20050;-69
2020/12/19 03:10:25;;;;;;;14.85;10.70;;;4.80;46.40;;;;;;5014344;28;20049;-69
2020/12/19 03:12:52;;;;;;;15.75;10.85;;;4.80;47.80;;;;;;4998393;28;20124;-68
2020/12/19 03:15:20;;;;;;;15.38;10.23;;;4.80;48.00;;;;;;4998527;28;20519;-72
2020/12/19 03:17:47;;;;;;;13.90;9.88;;;4.90;46.20;;;;;;4994977;28;20409;-69
2020/12/19 03:20:14;;;;;;;18.33;10.70;;;5.00;46.20;;;;;;5012704;28;20050;-71
2020/12/19 03:22:40;;;;;;;14.52;10.18;;;5.00;45.50;;;;;;5014671;28;20046;-70
2020/12/19 03:25:08;;;;;;;15.93;9.93;;;5.00;45.50;;;;;;5013697;28;20050;-70
2020/12/19 03:27:44;;;;;;;25.45;11.45;;;4.90;45.70;;;;;;5008881;28;20057;-70
2020/12/19 03:30:11;;;;;;;17.23;10.30;;;5.00;45.60;;;;;;5014054;28;20420;-69
2020/12/19 03:32:38;;;;;;;16.08;11.18;;;4.90;45.40;;;;;;5014392;28;20093;-69
2020/12/19 03:35:05;;;;;;;14.25;10.15;;;4.80;46.10;;;;;;5013265;28;20054;-69
2020/12/19 03:37:33;;;;;;;14.38;9.43;;;4.70;47.10;;;;;;5013943;28;20140;-70
2020/12/19 03:40:00;;;;;;;18.98;11.13;;;4.60;47.80;;;;;;5009426;28;20046;-69
2020/12/19 03:42:27;;;;;;;16.00;10.15;;;4.70;47.60;;;;;;5013845;28;20492;-70
2020/12/19 03:44:53;;;;;;;15.27;10.10;;;4.80;47.10;;;;;;5013465;28;20041;-69
2020/12/19 03:47:20;;;;;;;14.57;10.55;;;4.80;46.60;;;;;;5007473;28;20108;-72
2020/12/19 03:49:48;;;;;;;17.88;12.05;;;4.70;46.60;;;;;;5013897;28;20049;-70
2020/12/19 03:52:15;;;;;;;17.05;11.23;;;4.70;46.30;;;;;;5013970;28;20060;-70
2020/12/19 03:54:42;;;;;;;16.52;11.27;;;4.70;47.60;;;;;;5013083;28;20050;-72
2020/12/19 03:57:09;;;;;;;16.80;11.05;;;4.60;47.60;;;;;;5013427;28;20362;-69
2020/12/19 03:59:36;;;;;;;20.83;11.50;;;4.70;48.30;;;;;;5013870;28;20053;-69
2020/12/19 04:02:03;;;;;;;17.90;10.50;;;4.70;47.60;;;;;;5013428;28;20501;-70
2020/12/19 04:04:30;;;;;;;18.55;10.60;;;4.70;47.50;;;;;;5008254;28;20424;-69
2020/12/19 04:07:01;;;;;;;17.52;11.45;;;4.60;47.90;;;;;;5004933;28;20050;-69
2020/12/19 04:09:28;;;;;;;14.05;10.55;;;4.70;47.10;;;;;;5009190;28;20509;-70
2020/12/19 04:11:55;;;;;;;15.40;10.43;;;4.60;47.30;;;;;;5003681;28;20046;-69
2020/12/19 04:14:22;;;;;;;15.23;9.95;;;4.60;47.20;;;;;;5012330;28;20046;-69
2020/12/19 04:16:49;;;;;;;16.55;10.05;;;4.70;46.60;;;;;;5012801;28;20515;-69
2020/12/19 04:19:16;;;;;;;17.83;10.60;;;4.70;46.10;;;;;;5011547;28;20570;-69
2020/12/19 04:21:43;;;;;;;18.15;10.10;;;4.70;46.10;;;;;;5013084;28;20058;-68
2020/12/19 04:24:11;;;;;;;15.18;9.32;;;4.60;46.50;;;;;;5012116;28;20056;-69
2020/12/19 04:26:38;;;;;;;12.70;9.68;;;4.60;46.60;;;;;;5012759;28;20580;-69
2020/12/19 04:29:05;;;;;;;16.33;10.23;;;4.60;46.80;;;;;;5013165;28;20076;-69
2020/12/19 04:31:32;;;;;;;15.15;10.13;;;4.50;46.60;;;;;;5012915;28;20050;-70
2020/12/19 04:33:58;;;;;;;15.15;11.07;;;4.50;47.20;;;;;;4998172;28;20050;-70
2020/12/19 04:36:25;;;;;;;15.35;10.88;;;4.50;47.30;;;;;;5013122;28;20049;-70
2020/12/19 04:38:52;;;;;;;14.80;10.65;;;4.40;47.70;;;;;;5012841;28;20050;-71
2020/12/19 04:41:20;;;;;;;13.68;10.80;;;4.40;48.90;;;;;;5007924;28;20061;-70
2020/12/19 04:43:48;;;;;;;17.95;11.05;;;4.30;48.20;;;;;;5005987;28;20050;-69
2020/12/19 04:46:17;;;;;;;16.60;10.35;;;4.30;49.10;;;;;;5012922;28;20045;-70
2020/12/19 04:48:44;;;;;;;14.77;10.40;;;4.30;49.10;;;;;;5012885;28;20423;-70
2020/12/19 04:51:13;;;;;;;15.00;11.00;;;4.10;49.30;;;;;;5012570;28;20045;-71
2020/12/19 04:53:41;;;;;;;17.30;11.60;;;4.00;51.60;;;;;;5010215;28;20393;-71
2020/12/19 04:56:09;;;;;;;17.55;11.25;;;3.90;53.40;;;;;;5010289;28;20042;-70
2020/12/19 04:58:37;;;;;;;17.98;11.82;;;4.00;52.80;;;;;;5010991;28;20053;-70
2020/12/19 05:01:04;;;;;;;21.27;12.27;;;4.00;53.40;;;;;;5009643;28;20049;-70
2020/12/19 05:03:30;;;;;;;18.33;12.45;;;4.00;53.40;;;;;;5010505;28;20042;-71
2020/12/19 05:05:58;;;;;;;17.95;11.82;;;4.10;52.50;;;;;;5010081;28;20827;-70
2020/12/19 05:08:25;;;;;;;17.25;11.90;;;3.70;51.50;;;;;;5011718;28;20045;-70
2020/12/19 05:10:52;;;;;;;18.02;11.48;;;3.50;54.20;;;;;;5011712;28;20052;-70
2020/12/19 05:13:21;;;;;;;15.63;11.07;;;3.40;56.40;;;;;;5010462;28;20064;-70
2020/12/19 05:15:50;;;;;;;17.95;12.27;;;3.30;57.70;;;;;;5010335;28;20049;-70
2020/12/19 05:18:17;;;;;;;16.70;11.70;;;3.30;58.80;;;;;;5011272;28;20146;-71
2020/12/19 05:20:45;;;;;;;17.55;12.13;;;3.30;60.60;;;;;;5010761;28;20049;-71
2020/12/19 05:23:13;;;;;;;19.52;12.65;;;3.40;60.80;;;;;;5009238;28;20042;-71
2020/12/19 05:25:40;;;;;;;18.63;12.40;;;3.60;59.60;;;;;;5009796;28;20046;-70
2020/12/19 05:28:08;;;;;;;18.45;12.43;;;3.60;58.70;;;;;;5010939;28;20049;-70
2020/12/19 05:30:35;;;;;;;22.88;13.43;;;3.60;57.80;;;;;;5009815;28;20046;-70
2020/12/19 05:33:03;;;;;;;17.25;11.13;;;3.80;55.80;;;;;;5009647;28;20125;-70
2020/12/19 05:35:30;;;;;;;18.77;11.48;;;3.80;54.40;;;;;;5010005;28;20049;-70
2020/12/19 05:38:00;;;;;;;17.40;11.13;;;3.70;54.90;;;;;;5010346;28;20041;-69
2020/12/19 05:40:28;;;;;;;20.33;12.40;;;3.70;55.80;;;;;;5011143;28;20060;-70
2020/12/19 05:42:55;;;;;;;20.67;12.10;;;3.70;55.00;;;;;;5009004;28;20041;-70
2020/12/19 05:45:24;;;;;;;17.60;11.48;;;3.70;55.40;;;;;;5010041;28;20046;-71
2020/12/19 05:47:51;;;;;;;19.25;12.27;;;3.70;55.50;;;;;;5010077;28;20049;-71
2020/12/19 05:50:20;;;;;;;18.88;11.43;;;3.70;55.20;;;;;;5009174;28;20054;-71
2020/12/19 05:52:47;;;;;;;17.58;11.35;;;3.60;54.40;;;;;;5011229;28;21215;-70
2020/12/19 05:55:16;;;;;;;16.88;11.30;;;3.70;55.40;;;;;;5009241;28;20124;-70
2020/12/19 05:57:44;;;;;;;16.73;11.13;;;3.80;55.10;;;;;;5009680;28;20049;-70
2020/12/19 06:00:13;;;;;;;15.88;11.75;;;3.60;54.60;;;;;;5010871;28;20042;-70
2020/12/19 06:02:40;;;;;;;16.58;11.23;;;3.60;55.50;;;;;;5010145;28;20124;-70
2020/12/19 06:05:08;;;;;;;18.90;12.07;;;3.60;56.10;;;;;;5009378;28;20050;-70
2020/12/19 06:07:38;;;;;;;17.83;11.63;;;3.60;56.70;;;;;;5010308;28;20046;-71
2020/12/19 06:10:07;;;;;;;17.52;11.57;;;3.60;56.30;;;;;;5009565;28;20520;-71
2020/12/19 06:12:58;;;;;;;15.80;11.45;;;3.60;56.00;;;;;;5014465;28;20056;-71
2020/12/19 06:15:39;;;;;;;22.60;12.50;;;3.60;56.10;;;;;;5012165;28;20054;-71
2020/12/19 06:18:15;;;;;;;17.83;12.15;;;3.70;55.30;;;;;;5013961;28;20046;-71
2020/12/19 06:20:43;;;;;;;17.65;11.05;;;3.70;53.70;;;;;;5014918;28;20049;-71
2020/12/19 06:23:15;;;;;;;20.67;11.85;;;3.70;53.70;;;;;;5013730;28;20061;-71
2020/12/19 06:25:43;;;;;;;18.40;12.13;;;3.70;53.60;;;;;;5013775;28;20050;-71
2020/12/19 06:28:12;;;;;;;18.55;12.15;;;3.60;54.30;;;;;;5013303;28;20046;-72
2020/12/19 06:30:39;;;;;;;15.35;11.32;;;3.60;55.90;;;;;;5014558;28;20049;-72
2020/12/19 06:33:15;;;;;;;17.50;11.77;;;3.60;54.50;;;;;;5013533;28;20057;-72
2020/12/19 06:35:49;;;;;;;16.95;11.43;;;3.70;54.20;;;;;;5013637;28;20389;-70
2020/12/19 06:38:41;;;;;;;17.92;11.77;;;3.80;53.40;;;;;;5013250;28;20439;-71
2020/12/19 06:41:09;;;;;;;17.17;11.95;;;3.70;53.20;;;;;;5013713;28;20071;-70
2020/12/19 06:43:36;;;;;;;17.50;11.30;;;3.70;53.20;;;;;;5013229;28;20056;-72
2020/12/19 06:46:03;;;;;;;18.23;10.90;;;3.70;53.20;;;;;;5014061;28;20042;-71
2020/12/19 06:48:34;;;;;;;15.65;10.98;;;3.70;52.70;;;;;;5012544;28;20133;-71
2020/12/19 06:51:02;;;;;;;17.17;10.27;;;3.70;53.20;;;;;;5014110;28;20496;-71
2020/12/19 06:53:30;;;;;;;17.85;10.70;;;3.70;53.20;;;;;;5011359;28;20046;-69
2020/12/19 06:55:59;;;;;;;18.48;12.07;;;3.70;53.20;;;;;;5012694;28;20048;-71
2020/12/19 06:58:30;;;;;;;13.10;10.07;;;3.70;53.20;;;;;;5014141;28;20053;-71
2020/12/19 07:00:57;;;;;;;15.52;11.18;;;3.70;53.20;;;;;;5014003;28;20057;-71
2020/12/19 07:03:38;;;;;;;15.35;10.95;;;3.70;52.60;;;;;;5012845;28;20050;-71
2020/12/19 07:06:12;;;;;;;19.77;11.20;;;3.70;53.20;;;;;;5011547;28;20049;-70
2020/12/19 07:08:50;;;;;;;;;;;3.70;53.20;;;;;;5013303;28;20077;-70
2020/12/19 07:11:40;;;;;;;14.90;10.80;;;3.70;53.20;;;;;;5013926;28;20315;-70
2020/12/19 07:14:15;;;;;;;13.70;10.75;;;3.70;53.20;;;;;;5011679;28;20045;-72
2020/12/19 07:16:49;;;;;;;16.27;11.48;;;3.60;53.10;;;;;;5012871;28;20515;-70
2020/12/19 07:19:21;;;;;;;17.75;11.43;;;3.60;53.10;;;;;;5012442;28;20050;-70
2020/12/19 07:21:49;;;;;;;18.90;11.00;;;3.50;53.10;;;;;;5011721;28;20424;-71
2020/12/19 07:24:16;;;;;;;17.23;11.63;;;3.50;54.60;;;;;;5011195;28;20069;-71
2020/12/19 07:26:43;;;;;;;18.02;11.82;;;3.40;54.60;;;;;;5013623;28;20046;-71
2020/12/19 07:29:15;;;;;;;17.13;11.55;;;3.40;55.60;;;;;;5013350;28;20049;-70
2020/12/19 07:31:47;;;;;;;17.38;11.63;;;3.40;56.20;;;;;;5013430;28;20049;-71
2020/12/19 07:34:15;;;;;;;17.88;12.13;;;3.40;56.40;;;;;;5011439;28;20050;-71
2020/12/19 07:36:44;;;;;;;16.05;11.23;;;3.40;56.30;;;;;;5013351;28;20048;-71
2020/12/19 07:39:13;;;;;;;17.65;12.32;;;3.40;56.50;;;;;;5013155;28;20056;-70
2020/12/19 07:41:42;;;;;;;21.08;13.43;;;3.50;56.60;;;;;;5013285;28;20467;-71
2020/12/19 07:44:12;;;;;;;17.98;12.80;;;3.50;56.00;;;;;;5010568;28;20046;-71
2020/12/19 07:46:53;;;;;;;17.60;12.30;;;3.50;55.70;;;;;;5013129;28;20054;-70
2020/12/19 07:49:31;;;;;;;18.38;12.23;;;3.50;55.50;;;;;;5012605;28;20046;-71
2020/12/19 07:52:06;;;;;;;19.95;13.07;;;3.60;54.90;;;;;;5012368;28;20054;-73
2020/12/19 07:54:33;;;;;;;16.38;12.00;;;3.60;53.90;;;;;;5011336;28;20049;-71
2020/12/19 07:57:00;;;;;;;16.77;11.73;;;3.60;53.60;;;;;;5012758;28;20449;-71
2020/12/19 07:59:28;;;;;;;16.52;11.75;;;3.60;53.10;;;;;;5012924;28;20061;-71
2020/12/19 08:01:55;;;;;;;18.63;11.95;;;3.70;53.20;;;;;;5012669;28;20061;-71
2020/12/19 08:04:23;;;;;;;17.17;11.02;;;3.70;51.70;;;;;;5011172;28;20041;-70
2020/12/19 08:06:50;;;;;;;17.25;11.35;;;3.70;51.00;;;;;;5011334;28;20046;-70
2020/12/19 08:09:29;;;;;;;17.65;11.82;;;3.70;51.20;;;;;;5011998;28;20709;-71
2020/12/19 08:12:00;;;;;;;19.33;11.63;;;3.70;51.20;;;;;;5012587;28;20052;-71
2020/12/19 08:14:29;;;;;;;23.55;11.30;;;3.70;51.20;;;;;;5009853;28;20046;-71
2020/12/19 08:16:56;;;;;;;18.67;11.10;;;3.80;50.70;;;;;;5012183;28;20042;-72
2020/12/19 08:19:30;;;;;;;13.77;10.40;;;3.80;49.90;;;;;;5011484;28;20052;-71
2020/12/19 08:22:02;;;;;;;19.42;12.15;;;3.90;49.60;;;;;;5010933;28;20057;-71
2020/12/19 08:24:29;;;;;;;16.08;11.07;;;3.90;48.80;;;;;;5010800;28;20092;-72
2020/12/19 08:27:35;;;;;;;16.92;10.80;;;4.00;48.30;;;;;;5010579;28;20161;-72
2020/12/19 08:30:07;;;;;;;14.50;9.77;;;4.00;48.00;;;;;;5011738;28;20050;-71
2020/12/19 08:32:34;;;;;;;14.05;10.32;;;4.10;46.50;;;;;;5010865;28;20476;-72
2020/12/19 08:35:02;;;;;;;15.55;9.98;;;4.10;45.70;;;;;;5010752;28;20076;-71
2020/12/19 08:37:29;;;;;;;17.60;10.43;;;4.20;45.60;;;;;;5010242;28;20053;-72
2020/12/19 08:40:08;;;;;;;15.98;10.10;;;4.30;45.20;;;;;;5012272;28;20050;-71
2020/12/19 08:42:43;;;;;;;14.98;9.70;;;4.40;43.40;;;;;;5008644;28;20137;-71
2020/12/19 08:45:16;;;;;;;16.48;10.30;;;4.50;43.20;;;;;;5010930;28;20056;-70
2020/12/19 08:47:44;;;;;;;13.23;9.25;;;4.60;42.20;;;;;;5011019;28;20042;-71
2020/12/19 08:50:11;;;;;;;14.10;9.85;;;4.70;40.80;;;;;;5011390;28;20104;-72
2020/12/19 08:52:39;;;;;;;14.55;9.52;;;4.70;39.10;;;;;;5008869;28;20061;-71
2020/12/19 08:55:06;;;;;;;12.48;8.75;;;4.80;38.70;;;;;;5009957;28;20050;-71
2020/12/19 08:57:33;;;;;;;14.02;9.13;;;4.80;37.90;;;;;;5011633;28;20437;-71
2020/12/19 09:00:15;;;;;;;16.45;9.38;;;4.90;38.00;;;;;;5013062;28;20157;-71
2020/12/19 09:02:42;;;;;;;14.50;9.25;;;4.90;36.90;;;;;;5010847;28;20053;-71
2020/12/19 09:05:11;;;;;;;13.35;9.40;;;4.90;36.50;;;;;;5010388;28;20056;-73
2020/12/19 09:07:38;;;;;;;14.15;9.75;;;5.00;36.70;;;;;;5011159;28;20633;-72
2020/12/19 09:10:22;;;;;;;15.75;9.63;;;5.00;35.00;;;;;;5011777;28;20061;-71
2020/12/19 09:13:14;;;;;;;13.07;9.10;;;5.10;35.40;;;;;;5009702;28;20049;-71
2020/12/19 09:15:44;;;;;;;14.55;9.00;;;5.10;35.10;;;;;;5010490;28;20081;-72
2020/12/19 09:18:22;;;;;;;15.02;9.80;;;5.30;34.30;;;;;;5009948;28;20048;-71
2020/12/19 09:20:56;;;;;;;12.18;8.73;;;5.40;33.90;;;;;;5011592;28;20057;-71
2020/12/19 09:23:25;;;;;;;16.73;8.30;;;5.50;32.70;;;;;;5008729;28;20061;-71
2020/12/19 09:25:53;;;;;;;14.13;9.07;;;5.50;31.90;;;;;;5011073;28;20121;-71
2020/12/19 09:28:20;;;;;;;13.73;8.85;;;5.60;31.20;;;;;;5009776;28;20050;-72
2020/12/19 09:30:48;;;;;;;13.80;7.90;;;5.70;30.10;;;;;;5010949;28;20053;-72
2020/12/19 09:33:16;;;;;;;14.77;8.52;;;5.80;30.20;;;;;;5009436;28;20514;-72
2020/12/19 09:35:42;;;;;;;14.18;8.77;;;5.80;30.20;;;;;;5010788;28;20057;-72
2020/12/19 09:38:09;;;;;;;11.00;7.97;;;5.90;29.50;;;;;;5010691;28;20049;-72
2020/12/19 09:40:36;;;;;;;10.80;8.07;;;6.00;28.50;;;;;;5010520;28;20046;-72
2020/12/19 09:43:04;;;;;;;13.65;9.00;;;6.00;28.10;;;;;;5008470;28;20042;-72
2020/12/19 09:45:30;;;;;;;12.10;8.13;;;6.00;27.80;;;;;;5008836;28;20057;-72
2020/12/19 09:47:58;;;;;;;12.20;8.90;;;6.10;27.30;;;;;;5010772;28;20511;-72
2020/12/19 09:50:28;;;;;;;12.73;8.27;;;6.20;26.70;;;;;;5009688;28;20049;-71
2020/12/19 09:52:55;;;;;;;10.15;7.65;;;6.30;26.40;;;;;;5010014;28;20090;-72
2020/12/19 09:55:23;;;;;;;10.15;7.70;;;6.50;25.60;;;;;;5010054;28;20050;-72
2020/12/19 09:57:50;;;;;;;16.70;7.97;;;6.50;25.20;;;;;;5009586;28;20046;-71
2020/12/19 10:00:17;;;;;;;11.63;7.97;;;6.60;24.00;;;;;;5010835;28;20053;-72
2020/12/19 10:02:48;;;;;;;13.32;7.95;;;6.70;24.10;;;;;;5010149;28;20060;-70
2020/12/19 10:05:17;;;;;;;13.38;8.07;;;6.70;24.10;;;;;;5008756;28;20045;-72
2020/12/19 10:07:44;;;;;;;11.35;7.88;;;6.80;23.00;;;;;;5010715;28;20074;-71
2020/12/19 10:10:11;;;;;;;10.02;7.68;;;6.80;22.60;;;;;;5010575;28;20053;-72
2020/12/19 10:12:38;;;;;;;12.80;7.82;;;6.80;22.80;;;;;;5009804;28;20069;-72
2020/12/19 10:15:07;;;;;;;13.48;7.78;;;6.90;22.60;;;;;;5010029;28;20049;-73
2020/12/19 10:17:34;;;;;;;11.95;8.27;;;7.00;23.00;;;;;;5008898;28;20412;-72
2020/12/19 10:20:01;;;;;;;12.68;8.30;;;7.00;22.30;;;;;;5009749;28;20053;-71
2020/12/19 10:22:32;;;;;;;12.40;8.02;;;7.10;22.40;;;;;;5009469;28;20046;-72
2020/12/19 10:25:00;;;;;;;9.52;7.65;;;7.10;22.40;;;;;;5009659;28;20724;-71
2020/12/19 10:27:27;;;;;;;10.20;7.30;;;7.20;22.60;;;;;;5010586;28;20049;-73
2020/12/19 10:29:54;;;;;;;11.30;7.57;;;7.30;22.40;;;;;;5010084;28;20423;-73
2020/12/19 10:32:21;;;;;;;14.10;8.25;;;7.30;21.90;;;;;;5010222;28;20046;-72
2020/12/19 10:34:48;;;;;;;14.32;7.47;;;7.40;21.70;;;;;;5008863;28;20046;-72
2020/12/19 10:37:15;;;;;;;9.10;7.10;;;7.40;21.10;;;;;;5008596;28;20042;-72
2020/12/19 10:39:43;;;;;;;12.25;8.00;;;7.40;20.40;;;;;;5010342;28;20061;-72
2020/12/19 10:42:09;;;;;;;10.73;6.60;;;7.50;19.70;;;;;;5010361;28;20060;-72
2020/12/19 10:44:36;;;;;;;13.07;7.47;;;7.60;18.80;;;;;;5008898;28;20046;-72
2020/12/19 10:47:03;;;;;;;13.63;7.82;;;7.70;18.80;;;;;;5010276;28;20512;-72
2020/12/19 10:49:30;;;;;;;11.65;7.32;;;7.70;18.70;;;;;;5009322;28;20052;-72
2020/12/19 10:51:57;;;;;;;8.15;6.68;;;7.80;18.40;;;;;;5010211;28;20046;-71
2020/12/19 10:54:23;;;;;;;10.02;6.57;;;7.90;17.90;;;;;;5007537;28;20496;-72
2020/12/19 10:56:59;;;;;;;;;;;8.10;16.80;;;;;;5010479;28;20045;-71
2020/12/19 10:59:26;;;;;;;9.55;5.93;;;8.10;15.80;;;;;;5012021;28;19928;-71
2020/12/19 11:01:53;;;;;;;10.30;6.53;;;8.20;15.50;;;;;;5012646;28;20050;-71
2020/12/19 11:04:20;;;;;;;11.55;6.47;;;8.30;14.70;;;;;;5011357;28;20515;-72
2020/12/19 11:06:47;;;;;;;10.10;6.72;;;8.40;14.80;;;;;;5013582;28;20125;-72
2020/12/19 11:09:14;;;;;;;10.57;6.43;;;8.50;14.20;;;;;;5010977;28;20097;-73
2020/12/19 11:11:41;;;;;;;7.65;5.80;;;8.50;14.40;;;;;;5011922;28;20524;-73
2020/12/19 11:14:09;;;;;;;8.93;5.57;;;8.70;13.20;;;;;;5008588;28;20050;-72
2020/12/19 11:16:36;;;;;;;11.77;5.85;;;8.80;12.90;;;;;;5013160;28;20046;-72
2020/12/19 11:19:03;;;;;;;9.80;6.47;;;8.90;12.30;;;;;;5013217;28;20526;-72
2020/12/19 11:21:30;;;;;;;9.13;5.72;;;8.90;12.90;;;;;;5010104;28;20053;-72
2020/12/19 11:23:57;;;;;;;10.35;5.78;;;9.00;13.10;;;;;;5011150;28;20050;-72
2020/12/19 11:26:24;;;;;;;9.30;6.97;;;9.00;13.10;;;;;;5013186;28;20080;-72
2020/12/19 11:28:52;;;;;;;10.57;6.43;;;9.10;12.90;;;;;;5013195;28;20508;-71
2020/12/19 11:31:26;;;;;;;16.25;6.70;;;9.20;12.40;;;;;;5012885;28;20472;-73
2020/12/19 11:33:53;;;;;;;9.30;7.22;;;9.30;11.70;;;;;;5009898;28;20050;-72
2020/12/19 11:36:20;;;;;;;12.02;7.25;;;9.30;11.70;;;;;;5012678;28;20069;-73
2020/12/19 11:38:47;;;;;;;7.95;6.22;;;9.30;11.70;;;;;;5012483;28;20046;-72
2020/12/19 11:41:20;;;;;;;7.38;5.90;;;9.40;10.70;;;;;;5011508;28;20041;-73
2020/12/19 11:43:47;;;;;;;12.75;6.70;;;9.60;9.70;;;;;;5009564;28;20054;-72
2020/12/19 11:46:14;;;;;;;9.15;6.53;;;9.50;11.10;;;;;;5011163;28;20680;-72
2020/12/19 11:48:42;;;;;;;10.70;6.63;;;9.50;11.20;;;;;;5011619;28;20053;-72
2020/12/19 11:51:09;;;;;;;8.25;5.38;;;9.40;10.90;;;;;;5012414;28;20046;-71
2020/12/19 11:53:36;;;;;;;11.20;6.70;;;9.40;9.90;;;;;;5010653;28;20056;-72
2020/12/19 11:56:03;;;;;;;9.82;6.30;;;9.40;10.90;;;;;;5012746;28;20061;-72
2020/12/19 11:58:30;;;;;;;11.93;6.45;;;9.50;10.20;;;;;;5012306;28;20052;-72
2020/12/19 12:00:57;;;;;;;7.40;5.72;;;9.60;10.30;;;;;;5011965;28;20045;-73
2020/12/19 12:03:24;;;;;;;8.10;5.78;;;9.80;8.50;;;;;;5009991;28;20148;-73
2020/12/19 12:05:52;;;;;;;9.13;5.97;;;9.90;8.40;;;;;;5012026;28;20062;-72
2020/12/19 12:08:18;;;;;;;14.43;6.45;;;10.00;7.50;;;;;;5010126;28;20049;-72
2020/12/19 12:10:45;;;;;;;6.13;5.18;;;10.00;7.70;;;;;;5013662;28;20054;-71
2020/12/19 12:13:13;;;;;;;8.10;5.65;;;10.20;7.20;;;;;;5012056;28;20053;-72
2020/12/19 12:15:39;;;;;;;12.45;6.05;;;10.30;6.30;;;;;;5012724;28;20054;-71
2020/12/19 12:18:06;;;;;;;8.52;5.53;;;10.40;6.40;;;;;;5012877;28;20404;-71
2020/12/19 12:20:33;;;;;;;11.68;6.60;;;10.50;4.80;;;;;;5011571;28;20064;-72
2020/12/19 12:23:01;;;;;;;9.15;6.45;;;10.60;5.00;;;;;;5010755;28;20096;-72
2020/12/19 12:25:28;;;;;;;8.32;5.75;;;10.80;5.10;;;;;;5007729;28;20053;-72
2020/12/19 12:27:54;;;;;;;8.65;6.07;;;10.90;4.70;;;;;;5010156;28;20457;-71
2020/12/19 12:30:21;;;;;;;8.60;6.45;;;10.90;4.70;;;;;;5010537;28;20046;-71
2020/12/19 12:32:48;;;;;;;12.57;6.60;;;11.00;4.80;;;;;;5011106;28;20416;-72
2020/12/19 12:35:15;;;;;;;9.32;6.75;;;11.10;4.60;;;;;;5010657;28;20050;-71
2020/12/19 12:37:42;;;;;;;11.55;6.80;;;11.10;4.80;;;;;;5011985;28;20049;-70
2020/12/19 12:40:10;;;;;;;10.27;6.40;;;11.00;4.10;;;;;;5011063;28;20042;-71
2020/12/19 12:42:37;;;;;;;10.18;6.90;;;11.10;4.20;;;;;;5010860;28;20061;-72
2020/12/19 12:45:04;;;;;;;8.25;6.20;;;11.10;4.00;;;;;;5009968;28;20045;-71
2020/12/19 12:47:30;;;;;;;13.35;6.78;;;11.10;4.10;;;;;;5010553;28;20088;-72
2020/12/19 12:49:57;;;;;;;9.40;5.85;;;11.10;4.80;;;;;;5009844;28;20049;-71
2020/12/19 12:52:24;;;;;;;7.35;5.38;;;11.00;4.00;;;;;;5009158;28;20042;-71